Aeroporto :
LOGIN :

Iscrizione | Disclaimer

   EN    FR    IT 

 










Sommario :    VFR   VFR Marginale   IFR   IFR Intensivo   IFR Molto Intensivo
Visibilità : 
Base nubi : 
>= 8 km
>= 3000ft
5 / 8 km
1000 / 3000 ft
1500m / 5 km
500 / 1000 ft
800 / 1500m
200 / 500 ft
< 800m
< 200 ft
Simboli :   Temporali  Nebbia  Neve Forte  Precipitazioni Forti  Vento > 20 kt
SIGMETs :   Varie  Temporali  Ghiacco  Turbolenza  Onda orograficha  Ceneri Vulcaniche






- Altitudine del aeroporto : 55 ft
- Codice IATA : DSA


EGCN - Robin Hood Doncaster Sheffield

ULTIMO METAR :
  • 210020Z 23013KT CAVOK 05/00 Q1017

METARs OBSOLETI :
  • 202350Z 23010KT 9999 SCT042 05/M00 Q1017
  • 202320Z 23012KT 9999 FEW046 05/M00 Q1016
  • 202250Z 25016KT CAVOK 05/M00 Q1016
  • 202220Z 24017KT CAVOK 05/M00 Q1016
  • 202150Z 24015KT CAVOK 05/M00 Q1015

TAF TAF EGCN
Valido dal 21 a 00 ore il 22 a 00 ore UTC


202251Z 2100/2124 23012KT 9999 SCT025
BECMG 2104/2107 23017G27KT
TEMPO 2108/2124 24027G37KT
PROB30
TEMPO 2122/2124 8000 -RA BKN014



MetMap, La meteo Aeronautica in un colpo d'occhio ! - Copyright ORBIFLY Dicembre 2007 - Disclaimer

ORBIFLY MET'MAP TEAM :

Programmazione e sviluppo : Alexandra Zaïnal
Concezione : Baudouin d'Aumeries
Aiuto per la programmazione : Marc-Olivier Méhu
Supporto tecnico e logistico : Manuel Goepfert
Aiuto per la traduzione : Arnaldo La Scala

Contatto : metmap@orbifly.com




FONTI E CREDITI :

   NOAA